createdAt,value
2022-08-30T00:00:03.327Z,22.47
2022-08-30T00:01:03.280Z,22.35
2022-08-30T00:03:07.348Z,22.38
2022-08-30T00:04:07.154Z,22.38
2022-08-30T00:06:11.080Z,22.38
2022-08-30T00:07:11.034Z,22.23
2022-08-30T00:09:14.938Z,22.26
2022-08-30T00:10:14.905Z,22.25
2022-08-30T00:12:07.753Z,22.13
2022-08-30T00:13:07.710Z,22.22
2022-08-30T00:15:12.342Z,22.13
2022-08-30T00:16:11.642Z,22.18
2022-08-30T00:18:15.515Z,22.25
2022-08-30T00:19:15.457Z,22.25
2022-08-30T00:21:19.364Z,22.18
2022-08-30T00:22:19.334Z,22.10
2022-08-30T00:24:23.083Z,22.07
2022-08-30T00:25:23.056Z,22.08
2022-08-30T00:27:26.942Z,21.98
2022-08-30T00:28:26.917Z,21.99
2022-08-30T00:30:30.830Z,21.92
2022-08-30T00:31:30.830Z,21.93
2022-08-30T00:33:34.702Z,21.89
2022-08-30T00:34:34.659Z,21.96
2022-08-30T00:36:38.588Z,21.89
2022-08-30T00:37:38.539Z,21.85
2022-08-30T00:39:42.451Z,21.85
2022-08-30T00:40:42.486Z,21.73
2022-08-30T00:42:50.560Z,21.72
2022-08-30T00:43:46.293Z,21.61
2022-08-30T00:45:50.231Z,21.60
2022-08-30T00:46:50.170Z,21.61
2022-08-30T00:48:54.073Z,21.55
2022-08-30T00:49:54.041Z,21.50
2022-08-30T00:51:46.890Z,21.39
2022-08-30T00:52:46.846Z,21.36
2022-08-30T00:54:50.770Z,21.37
2022-08-30T00:55:50.716Z,21.32
2022-08-30T00:57:54.621Z,21.35
2022-08-30T00:58:54.595Z,21.30
2022-08-30T01:00:58.509Z,21.21
2022-08-30T01:01:58.515Z,21.17
2022-08-30T01:04:02.462Z,21.21
2022-08-30T01:05:02.334Z,21.18
2022-08-30T01:07:06.240Z,21.12
2022-08-30T01:08:06.204Z,21.06
2022-08-30T01:10:10.129Z,21.15
2022-08-30T01:11:10.085Z,21.06
2022-08-30T01:13:14.001Z,21.02
2022-08-30T01:14:13.996Z,21.02
2022-08-30T01:16:17.919Z,20.99
2022-08-30T01:17:17.905Z,21.05
2022-08-30T01:19:21.754Z,21.06
2022-08-30T01:20:21.728Z,21.03
2022-08-30T01:22:14.544Z,21.00
2022-08-30T01:23:14.749Z,21.06
2022-08-30T01:25:18.436Z,20.92
2022-08-30T01:26:19.223Z,20.90
2022-08-30T01:28:22.306Z,20.93
2022-08-30T01:29:22.264Z,20.93
2022-08-30T01:31:26.232Z,20.92
2022-08-30T01:32:29.004Z,20.90
2022-08-30T01:34:30.048Z,20.78
2022-08-30T01:35:30.003Z,20.72
2022-08-30T01:36:29.974Z,20.75
2022-08-30T01:37:29.947Z,20.75
2022-08-30T01:38:29.914Z,20.65
2022-08-30T01:39:29.887Z,20.78
2022-08-30T01:40:30.077Z,20.69
2022-08-30T01:41:29.830Z,20.72
2022-08-30T01:42:29.797Z,20.72
2022-08-30T01:43:29.767Z,20.78
2022-08-30T01:44:29.739Z,20.74
2022-08-30T01:45:29.709Z,20.69
2022-08-30T01:46:29.759Z,20.65
2022-08-30T01:47:29.647Z,20.74
2022-08-30T01:48:30.933Z,20.63
2022-08-30T01:49:29.590Z,20.70
2022-08-30T01:50:29.558Z,20.58
2022-08-30T01:51:29.529Z,20.63
2022-08-30T01:52:29.499Z,20.70
2022-08-30T01:53:29.470Z,20.67
2022-08-30T01:54:33.291Z,20.75
2022-08-30T01:55:29.409Z,20.70
2022-08-30T01:56:29.408Z,20.70
2022-08-30T01:57:29.346Z,20.72
2022-08-30T01:58:29.315Z,20.74
2022-08-30T01:59:29.289Z,20.74
2022-08-30T02:00:29.259Z,20.66
2022-08-30T02:01:29.291Z,20.70
2022-08-30T02:02:29.995Z,20.66
2022-08-30T02:03:29.198Z,20.74
2022-08-30T02:06:07.674Z,20.77
2022-08-30T02:07:07.621Z,20.75
2022-08-30T02:09:11.530Z,20.75
2022-08-30T02:10:11.498Z,20.80
2022-08-30T02:12:04.351Z,20.77
2022-08-30T02:14:42.806Z,20.74
2022-08-30T02:15:42.781Z,20.69
2022-08-30T02:17:46.698Z,20.72
2022-08-30T02:18:46.645Z,20.67
2022-08-30T02:20:51.406Z,20.78
2022-08-30T02:21:53.057Z,20.74
2022-08-30T02:23:55.893Z,20.77
2022-08-30T02:24:55.846Z,20.75
2022-08-30T02:27:00.236Z,20.75
2022-08-30T02:28:00.210Z,20.77
2022-08-30T02:29:00.175Z,20.74
2022-08-30T02:30:00.160Z,20.69
2022-08-30T02:31:00.202Z,20.70
2022-08-30T02:32:00.095Z,20.66
2022-08-30T02:33:00.056Z,20.69
2022-08-30T02:34:00.034Z,20.70
2022-08-30T02:34:59.999Z,20.59
2022-08-30T02:35:59.969Z,20.63
2022-08-30T02:36:59.937Z,20.63
2022-08-30T02:37:59.909Z,20.59
2022-08-30T02:38:59.885Z,20.63
2022-08-30T02:39:59.878Z,20.59
2022-08-30T02:40:59.818Z,20.56
2022-08-30T02:41:59.814Z,20.59
2022-08-30T02:42:59.759Z,20.59
2022-08-30T02:43:59.728Z,20.56
2022-08-30T02:44:59.697Z,20.60
2022-08-30T02:45:59.772Z,20.55
2022-08-30T02:46:59.643Z,20.56
2022-08-30T02:47:59.610Z,20.58
2022-08-30T02:49:05.616Z,20.47
2022-08-30T02:49:59.547Z,20.52
2022-08-30T02:50:59.521Z,20.43
2022-08-30T02:51:59.515Z,20.43
2022-08-30T05:08:25.613Z,18.65
2022-08-30T05:09:25.556Z,18.60
2022-08-30T05:11:29.459Z,18.65
2022-08-30T05:12:29.427Z,18.59
2022-08-30T05:14:33.351Z,18.74
2022-08-30T05:17:11.802Z,18.68
2022-08-30T05:18:14.232Z,18.73
2022-08-30T05:20:15.679Z,18.77
2022-08-30T05:21:15.628Z,18.83
2022-08-30T05:23:19.547Z,18.75
2022-08-30T05:24:19.497Z,18.81
2022-08-30T05:26:25.061Z,18.77
2022-08-30T05:27:23.368Z,18.80
2022-08-30T05:29:27.267Z,18.74
2022-08-30T05:30:27.230Z,18.78
2022-08-30T05:32:20.075Z,18.83
2022-08-30T05:33:20.028Z,18.80
2022-08-30T05:35:25.924Z,18.83
2022-08-30T05:36:23.906Z,18.74
2022-08-30T05:38:27.819Z,18.84
2022-08-30T05:39:27.779Z,18.89
2022-08-30T05:41:20.605Z,18.86
2022-08-30T05:42:20.579Z,18.84
2022-08-30T05:44:25.935Z,18.90
2022-08-30T05:45:24.442Z,18.84
2022-08-30T05:47:28.846Z,18.92
2022-08-30T05:48:28.809Z,18.88
2022-08-30T05:50:34.931Z,18.90
2022-08-30T05:51:32.680Z,18.88
2022-08-30T05:53:36.611Z,18.96
2022-08-30T05:54:36.557Z,18.96
2022-08-30T05:56:40.477Z,18.84
2022-08-30T05:57:40.429Z,18.98
2022-08-30T05:59:44.343Z,18.93
2022-08-30T06:00:44.297Z,18.96
2022-08-30T06:02:48.268Z,18.98
2022-08-30T06:03:48.170Z,18.95
2022-08-30T06:05:52.087Z,18.99
2022-08-30T06:06:52.041Z,18.95
2022-08-30T06:08:55.954Z,18.92
2022-08-30T06:09:55.922Z,18.89
2022-08-30T06:11:48.768Z,18.95
2022-08-30T06:12:48.714Z,18.90
2022-08-30T06:14:53.541Z,19.08
2022-08-30T06:15:52.670Z,19.02
2022-08-30T06:17:56.498Z,19.08
2022-08-30T06:18:56.454Z,19.11
2022-08-30T06:21:00.365Z,19.07
2022-08-30T06:22:00.327Z,19.00
2022-08-30T06:24:04.226Z,19.11
2022-08-30T06:25:04.188Z,19.16
2022-08-30T06:27:08.102Z,19.21
2022-08-30T06:28:08.055Z,19.24
2022-08-30T06:30:11.977Z,19.15
2022-08-30T06:31:11.964Z,19.22
2022-08-30T06:33:15.848Z,19.18
2022-08-30T06:34:15.799Z,19.22
2022-08-30T06:36:19.707Z,19.36
2022-08-30T06:37:29.230Z,19.37
2022-08-30T06:39:23.583Z,19.41
2022-08-30T06:40:23.557Z,19.41
2022-08-30T06:42:16.416Z,19.48
2022-08-30T06:43:16.336Z,19.59
2022-08-30T06:44:16.311Z,19.55
2022-08-30T06:45:16.271Z,19.58
2022-08-30T06:46:16.259Z,19.63
2022-08-30T06:47:16.211Z,19.62
2022-08-30T06:48:16.336Z,19.76
2022-08-30T06:49:16.148Z,19.81
2022-08-30T06:50:16.118Z,19.76
2022-08-30T06:51:16.089Z,19.76
2022-08-30T06:52:16.058Z,19.94
2022-08-30T06:53:16.029Z,19.86
2022-08-30T06:54:15.995Z,19.96
2022-08-30T06:55:16.024Z,19.91
2022-08-30T06:56:16.796Z,20.00
2022-08-30T06:57:15.908Z,19.99
2022-08-30T06:58:16.031Z,19.99
2022-08-30T06:59:15.847Z,20.03
2022-08-30T07:00:15.811Z,20.00
2022-08-30T07:01:15.784Z,20.00
2022-08-30T07:02:15.796Z,20.10
2022-08-30T07:03:15.826Z,20.10
2022-08-30T07:04:15.687Z,20.09
2022-08-30T07:05:18.777Z,20.18
2022-08-30T07:06:15.628Z,20.10
2022-08-30T07:07:15.602Z,20.18
2022-08-30T07:08:15.658Z,20.26
2022-08-30T07:09:15.604Z,20.29
2022-08-30T07:10:15.511Z,20.29
2022-08-30T07:11:15.476Z,20.44
2022-08-30T07:12:15.450Z,20.44
2022-08-30T07:13:15.590Z,20.48
2022-08-30T07:14:15.385Z,20.66
2022-08-30T07:15:15.362Z,20.72
2022-08-30T07:16:15.377Z,20.69
2022-08-30T07:17:15.302Z,20.80
2022-08-30T07:18:15.265Z,20.72
2022-08-30T07:19:20.800Z,20.92
2022-08-30T07:20:15.203Z,20.88
2022-08-30T07:21:15.178Z,20.99
2022-08-30T07:22:15.147Z,21.03
2022-08-30T07:23:15.226Z,21.11
2022-08-30T07:24:15.087Z,21.05
2022-08-30T07:25:15.055Z,21.12
2022-08-30T07:26:15.025Z,21.15
2022-08-30T07:27:14.997Z,21.21
2022-08-30T07:28:14.966Z,21.32
2022-08-30T07:29:14.937Z,21.32
2022-08-30T07:30:14.906Z,21.40
2022-08-30T07:31:14.881Z,21.42
2022-08-30T07:32:14.848Z,21.45
2022-08-30T07:33:14.821Z,21.54
2022-08-30T07:34:14.794Z,21.51
2022-08-30T07:35:14.763Z,21.58
2022-08-30T07:36:14.728Z,21.60
2022-08-30T07:37:18.277Z,21.66
2022-08-30T07:38:14.670Z,21.70
2022-08-30T07:39:14.643Z,21.73
2022-08-30T07:40:14.660Z,21.83
2022-08-30T07:41:14.582Z,21.85
2022-08-30T07:42:14.555Z,21.88
2022-08-30T07:43:14.524Z,22.06
2022-08-30T07:44:14.493Z,21.93
2022-08-30T07:45:14.468Z,21.96
2022-08-30T07:46:14.456Z,22.10
2022-08-30T07:47:14.404Z,22.15
2022-08-30T07:48:14.375Z,22.18
2022-08-30T07:49:14.352Z,22.15
2022-08-30T07:50:14.317Z,22.20
2022-08-30T07:51:14.290Z,22.23
2022-08-30T07:52:14.264Z,22.23
2022-08-30T07:53:14.261Z,22.25
2022-08-30T07:54:14.198Z,22.35
2022-08-30T07:55:14.177Z,22.36
2022-08-30T07:56:14.143Z,22.45
2022-08-30T07:57:16.048Z,22.45
2022-08-30T07:58:14.086Z,22.44
2022-08-30T07:59:14.057Z,22.50
2022-08-30T08:00:14.028Z,22.51
2022-08-30T08:01:14.039Z,22.55
2022-08-30T08:02:13.993Z,22.60
2022-08-30T08:03:13.939Z,22.68
2022-08-30T08:04:13.910Z,22.75
2022-08-30T08:05:17.054Z,22.83
2022-08-30T08:06:13.855Z,22.76
2022-08-30T08:07:13.823Z,22.83
2022-08-30T08:08:13.794Z,22.87
2022-08-30T08:09:13.766Z,22.90
2022-08-30T08:10:13.740Z,22.90
2022-08-30T08:11:16.210Z,22.99
2022-08-30T08:12:13.679Z,22.98
2022-08-30T08:13:13.654Z,23.05
2022-08-30T08:14:13.622Z,23.10
2022-08-30T08:15:13.599Z,23.21
2022-08-30T08:16:13.590Z,23.20
2022-08-30T08:17:13.538Z,23.21
2022-08-30T08:18:13.515Z,23.37
2022-08-30T08:19:13.484Z,23.28
2022-08-30T08:20:13.474Z,23.39
2022-08-30T08:21:13.424Z,23.41
2022-08-30T08:22:21.720Z,23.47
2022-08-30T08:23:13.372Z,23.48
2022-08-30T08:24:13.340Z,23.47
2022-08-30T08:25:13.311Z,23.50
2022-08-30T08:26:13.280Z,23.66
2022-08-30T08:27:13.260Z,23.68
2022-08-30T08:28:13.252Z,23.73
2022-08-30T08:29:13.201Z,23.71
2022-08-30T08:30:13.171Z,23.80
2022-08-30T08:31:13.177Z,23.78
2022-08-30T08:32:13.117Z,23.83
2022-08-30T08:33:13.089Z,23.84
2022-08-30T08:34:13.066Z,23.93
2022-08-30T08:35:13.071Z,23.91
2022-08-30T08:36:13.001Z,23.87
2022-08-30T08:37:12.972Z,23.91
2022-08-30T08:38:12.989Z,23.96
2022-08-30T08:39:12.920Z,23.99
2022-08-30T08:40:12.945Z,24.03
2022-08-30T08:41:12.866Z,23.95
2022-08-30T08:42:12.832Z,24.03
2022-08-30T08:43:12.808Z,23.98
2022-08-30T08:44:12.778Z,24.01
2022-08-30T08:45:12.753Z,23.99
2022-08-30T08:46:12.733Z,24.08
2022-08-30T08:47:12.696Z,24.08
2022-08-30T08:48:12.736Z,24.16
2022-08-30T08:49:12.638Z,24.14
2022-08-30T08:50:12.609Z,24.18
2022-08-30T08:51:12.586Z,24.11
2022-08-30T08:52:12.556Z,24.16
2022-08-30T08:53:25.003Z,24.20
2022-08-30T08:54:12.500Z,24.24
2022-08-30T08:55:12.472Z,24.21
2022-08-30T08:56:12.444Z,24.29
2022-08-30T08:57:15.892Z,24.28
2022-08-30T08:58:12.452Z,24.36
2022-08-30T08:59:12.358Z,24.38
2022-08-30T09:00:12.334Z,24.28
2022-08-30T09:01:12.333Z,24.39
2022-08-30T09:02:12.280Z,24.30
2022-08-30T09:03:12.251Z,24.36
2022-08-30T09:04:12.224Z,24.43
2022-08-30T09:05:12.273Z,24.39
2022-08-30T09:06:12.169Z,24.39
2022-08-30T09:07:12.144Z,24.39
2022-08-30T09:08:12.114Z,24.40
2022-08-30T09:09:12.093Z,24.42
2022-08-30T09:10:12.054Z,24.54
2022-08-30T09:11:12.032Z,24.55
2022-08-30T09:12:12.008Z,24.53
2022-08-30T09:13:15.092Z,24.55
2022-08-30T09:14:11.944Z,24.55
2022-08-30T09:15:11.920Z,24.60
2022-08-30T09:16:13.987Z,24.55
2022-08-30T09:17:11.866Z,24.57
2022-08-30T09:18:19.496Z,24.63
2022-08-30T09:19:11.820Z,24.61
2022-08-30T09:20:11.783Z,24.70
2022-08-30T09:21:11.755Z,24.77
2022-08-30T09:22:11.728Z,24.86
2022-08-30T09:23:11.703Z,24.84
2022-08-30T09:24:11.674Z,24.93
2022-08-30T09:25:11.646Z,25.01
2022-08-30T09:26:11.619Z,25.14
2022-08-30T09:27:11.591Z,25.18
2022-08-30T09:28:11.565Z,25.17
2022-08-30T09:29:11.537Z,25.28
2022-08-30T09:30:15.100Z,25.26
2022-08-30T09:31:12.539Z,25.26
2022-08-30T09:32:25.382Z,25.14
2022-08-30T09:33:11.427Z,25.11
2022-08-30T09:34:11.398Z,25.18
2022-08-30T09:35:11.368Z,25.25
2022-08-30T09:36:11.343Z,25.36
2022-08-30T09:37:11.380Z,25.38
2022-08-30T09:38:11.294Z,25.54
2022-08-30T09:39:11.264Z,25.50
2022-08-30T09:40:11.305Z,25.50
2022-08-30T09:41:11.209Z,25.55
2022-08-30T09:42:11.181Z,25.62
2022-08-30T09:43:11.958Z,25.70
2022-08-30T09:44:11.127Z,25.70
2022-08-30T09:45:11.104Z,25.85
2022-08-30T09:46:11.243Z,25.81
2022-08-30T09:47:11.048Z,25.90
2022-08-30T09:48:11.020Z,25.83
2022-08-30T09:49:10.998Z,25.85
2022-08-30T09:50:10.967Z,25.90
2022-08-30T09:51:11.572Z,25.93
2022-08-30T09:52:10.918Z,25.99
2022-08-30T09:53:10.885Z,26.00
2022-08-30T09:54:18.702Z,26.06
2022-08-30T09:55:10.829Z,26.03
2022-08-30T09:56:10.803Z,26.09
2022-08-30T09:57:11.616Z,26.10
2022-08-30T09:58:10.750Z,26.23
2022-08-30T09:59:10.728Z,26.29
2022-08-30T10:00:11.764Z,26.37
2022-08-30T10:01:10.737Z,26.38
2022-08-30T10:02:10.696Z,26.45
2022-08-30T10:03:10.696Z,26.48
2022-08-30T10:04:10.604Z,26.41
2022-08-30T10:05:10.571Z,26.43
2022-08-30T10:06:10.540Z,26.52
2022-08-30T10:07:10.519Z,26.52
2022-08-30T10:08:12.644Z,26.48
2022-08-30T10:09:10.462Z,26.60
2022-08-30T10:10:10.440Z,26.62
2022-08-30T10:11:10.409Z,26.65
2022-08-30T10:12:10.382Z,26.70
2022-08-30T10:13:10.388Z,26.75
2022-08-30T10:14:10.327Z,26.88
2022-08-30T10:15:10.316Z,26.96
2022-08-30T10:16:10.277Z,26.95
2022-08-30T10:17:10.254Z,27.11
2022-08-30T10:18:10.263Z,27.18
2022-08-30T10:19:10.199Z,27.29
2022-08-30T10:20:10.254Z,27.36
2022-08-30T10:21:10.145Z,27.35
2022-08-30T10:22:10.122Z,27.49
2022-08-30T10:23:10.157Z,27.58
2022-08-30T10:24:10.074Z,27.58
2022-08-30T10:25:10.041Z,27.65
2022-08-30T10:26:10.018Z,27.59
2022-08-30T10:27:09.999Z,27.64
2022-08-30T10:28:09.972Z,27.67
2022-08-30T10:29:09.945Z,27.80
2022-08-30T10:30:09.929Z,27.90
2022-08-30T10:31:09.889Z,27.96
2022-08-30T10:32:09.860Z,28.07
2022-08-30T10:33:09.893Z,28.04
2022-08-30T10:34:09.807Z,27.96
2022-08-30T10:35:09.786Z,28.15
2022-08-30T10:36:10.530Z,28.22
2022-08-30T10:37:09.759Z,28.32
2022-08-30T10:38:09.707Z,28.44
2022-08-30T10:39:09.688Z,28.30
2022-08-30T10:40:09.685Z,28.41
2022-08-30T10:41:09.634Z,28.44
2022-08-30T10:42:09.610Z,28.59
2022-08-30T10:43:09.699Z,28.70
2022-08-30T10:44:09.556Z,28.69
2022-08-30T10:45:09.535Z,28.76
2022-08-30T10:46:09.510Z,28.94
2022-08-30T10:47:09.493Z,29.12
2022-08-30T10:48:09.460Z,29.23
2022-08-30T10:49:09.442Z,29.27
2022-08-30T10:50:09.414Z,29.36
2022-08-30T10:51:09.386Z,29.54
2022-08-30T10:52:09.364Z,29.53
2022-08-30T10:53:09.342Z,29.66
2022-08-30T10:54:09.312Z,29.76
2022-08-30T10:55:10.794Z,29.86
2022-08-30T10:56:09.265Z,29.93
2022-08-30T10:57:09.239Z,30.09
2022-08-30T10:58:09.216Z,30.12
2022-08-30T10:59:11.940Z,30.27
2022-08-30T11:00:09.187Z,30.43
2022-08-30T11:01:09.172Z,30.51
2022-08-30T11:02:09.124Z,30.61
2022-08-30T11:03:09.104Z,30.63
2022-08-30T11:04:09.101Z,30.66
2022-08-30T11:05:09.047Z,30.66
2022-08-30T11:06:09.035Z,30.62
2022-08-30T11:07:10.098Z,30.69
2022-08-30T11:08:09.002Z,30.77
2022-08-30T11:09:08.957Z,30.73
2022-08-30T11:10:09.008Z,30.57
2022-08-30T11:11:12.916Z,30.55
2022-08-30T11:12:08.881Z,30.61
2022-08-30T11:13:08.863Z,30.63
2022-08-30T11:14:08.841Z,30.61
2022-08-30T11:15:08.817Z,30.55
2022-08-30T11:16:08.793Z,30.62
2022-08-30T11:17:08.771Z,30.70
2022-08-30T11:18:08.745Z,30.73
2022-08-30T11:19:08.725Z,30.85
2022-08-30T11:20:08.704Z,30.87
2022-08-30T11:21:13.773Z,30.94
2022-08-30T11:22:08.655Z,31.06
2022-08-30T11:23:08.637Z,31.18
2022-08-30T11:24:11.446Z,31.40
2022-08-30T11:26:08.561Z,31.66
2022-08-30T11:27:08.537Z,31.62
2022-08-30T11:28:09.202Z,31.70
2022-08-30T11:29:08.491Z,31.78
2022-08-30T11:30:08.469Z,31.92
2022-08-30T11:31:08.447Z,32.04
2022-08-30T11:32:08.422Z,32.12
2022-08-30T11:33:09.370Z,32.07
2022-08-30T11:34:08.389Z,31.85
2022-08-30T11:35:11.203Z,31.92
2022-08-30T11:36:08.332Z,31.87
2022-08-30T11:37:10.019Z,31.90
2022-08-30T11:38:08.286Z,31.59
2022-08-30T11:39:08.262Z,31.43
2022-08-30T11:40:15.602Z,31.44
2022-08-30T11:41:09.489Z,31.25
2022-08-30T11:42:08.193Z,31.40
2022-08-30T11:43:08.171Z,31.49
2022-08-30T11:44:08.150Z,31.58
2022-08-30T11:45:08.127Z,31.62
2022-08-30T11:46:12.654Z,31.74
2022-08-30T11:47:08.084Z,31.77
2022-08-30T11:48:08.054Z,31.71
2022-08-30T11:49:08.155Z,31.65
2022-08-30T11:50:09.843Z,31.61
2022-08-30T11:51:07.990Z,31.59
2022-08-30T11:52:26.295Z,31.69
2022-08-30T11:53:07.947Z,31.85
2022-08-30T11:54:07.920Z,31.94
2022-08-30T11:55:07.901Z,32.19
2022-08-30T11:56:07.876Z,32.08
2022-08-30T11:57:07.860Z,32.11
2022-08-30T11:58:07.837Z,32.16
2022-08-30T11:59:07.808Z,31.77
2022-08-30T12:00:07.796Z,31.89
2022-08-30T12:01:20.635Z,31.99
2022-08-30T12:02:07.933Z,32.26
2022-08-30T12:03:07.839Z,32.16
2022-08-30T12:04:07.695Z,32.22
2022-08-30T12:05:07.671Z,32.31
2022-08-30T12:06:07.649Z,32.43
2022-08-30T12:07:07.629Z,32.56
2022-08-30T12:08:07.602Z,32.70
2022-08-30T12:09:08.313Z,32.73
2022-08-30T12:10:07.572Z,32.73
2022-08-30T12:11:07.537Z,32.77
2022-08-30T12:12:07.521Z,32.67
2022-08-30T12:13:07.509Z,32.63
2022-08-30T12:14:09.360Z,32.68
2022-08-30T12:15:07.449Z,32.73
2022-08-30T12:16:07.444Z,32.48
2022-08-30T12:17:07.403Z,32.21
2022-08-30T12:18:07.380Z,32.33
2022-08-30T12:19:07.359Z,32.48
2022-08-30T12:20:07.336Z,32.51
2022-08-30T12:21:07.845Z,32.65
2022-08-30T12:22:07.289Z,32.87
2022-08-30T12:23:07.268Z,33.07
2022-08-30T12:24:07.246Z,33.28
2022-08-30T12:25:07.226Z,33.43
2022-08-30T12:26:07.202Z,33.65
2022-08-30T12:27:07.183Z,33.62
2022-08-30T12:28:07.161Z,33.61
2022-08-30T12:29:07.137Z,33.59
2022-08-30T12:30:07.119Z,33.47
2022-08-30T12:31:07.092Z,33.42
2022-08-30T12:32:07.087Z,33.28
2022-08-30T12:33:07.053Z,33.42
2022-08-30T12:34:07.030Z,33.55
2022-08-30T12:35:07.006Z,33.92
2022-08-30T12:36:06.987Z,34.11
2022-08-30T12:37:06.963Z,34.33
2022-08-30T12:38:06.936Z,34.24
2022-08-30T12:39:06.921Z,34.38
2022-08-30T12:40:07.009Z,34.35
2022-08-30T12:41:06.879Z,34.52
2022-08-30T12:42:06.859Z,34.67
2022-08-30T12:43:07.806Z,34.67
2022-08-30T12:44:06.813Z,34.83
2022-08-30T12:45:06.790Z,34.99
2022-08-30T12:46:07.361Z,35.12
2022-08-30T12:47:06.745Z,35.19
2022-08-30T12:48:06.887Z,35.29
2022-08-30T12:49:06.706Z,35.19
2022-08-30T12:50:06.684Z,35.04
2022-08-30T12:51:06.665Z,35.00
2022-08-30T12:52:06.642Z,34.81
2022-08-30T12:53:10.442Z,34.66
2022-08-30T12:54:06.599Z,34.52
2022-08-30T12:55:13.528Z,34.45
2022-08-30T12:56:06.565Z,34.40
2022-08-30T12:57:25.383Z,34.35
2022-08-30T12:58:06.516Z,34.27
2022-08-30T12:59:06.517Z,34.30
2022-08-30T13:00:06.486Z,34.42
2022-08-30T13:01:06.642Z,34.40
2022-08-30T13:02:06.566Z,34.55
2022-08-30T13:03:16.004Z,34.67
2022-08-30T13:04:06.394Z,34.90
2022-08-30T13:05:06.369Z,35.12
2022-08-30T13:06:06.376Z,35.23
2022-08-30T13:07:06.327Z,35.42
2022-08-30T13:08:06.319Z,35.58
2022-08-30T13:09:06.288Z,35.74
2022-08-30T13:10:06.272Z,35.85
2022-08-30T13:11:08.499Z,36.01
2022-08-30T13:12:06.226Z,36.20
2022-08-30T13:13:06.206Z,36.28
2022-08-30T13:14:06.187Z,35.79
2022-08-30T13:15:06.166Z,35.92
2022-08-30T13:16:06.173Z,36.07
2022-08-30T13:17:06.128Z,36.36
2022-08-30T13:18:06.104Z,36.24
2022-08-30T13:19:06.085Z,35.70
2022-08-30T13:20:06.064Z,35.95
2022-08-30T13:21:06.048Z,36.20
2022-08-30T13:22:06.022Z,36.43
2022-08-30T13:23:06.004Z,36.61
2022-08-30T13:24:05.980Z,36.89
2022-08-30T13:25:05.970Z,36.81
2022-08-30T13:26:05.950Z,36.92
2022-08-30T13:27:05.923Z,37.08
2022-08-30T13:28:05.905Z,37.15
2022-08-30T13:29:10.461Z,37.23
2022-08-30T13:30:05.866Z,37.44
2022-08-30T13:31:05.892Z,37.56
2022-08-30T13:32:05.837Z,37.72
2022-08-30T13:33:05.817Z,37.78
2022-08-30T13:34:05.789Z,37.89
2022-08-30T13:35:05.771Z,38.04
2022-08-30T13:36:05.750Z,38.11
2022-08-30T13:37:05.764Z,37.67
2022-08-30T13:38:05.714Z,37.72
2022-08-30T13:39:05.704Z,37.29
2022-08-30T13:40:05.815Z,36.65
2022-08-30T13:41:05.662Z,36.68
2022-08-30T13:43:05.626Z,36.93
2022-08-30T13:44:14.069Z,36.84
2022-08-30T13:45:40.815Z,36.74
2022-08-30T13:46:05.612Z,36.36
2022-08-30T13:48:05.529Z,36.07
2022-08-30T13:49:05.593Z,36.40
2022-08-30T13:50:05.490Z,36.68
2022-08-30T13:51:05.473Z,36.70
2022-08-30T13:52:19.938Z,36.25
2022-08-30T13:53:05.434Z,36.31
2022-08-30T13:54:05.422Z,36.61
2022-08-30T13:55:05.394Z,36.99
2022-08-30T13:56:05.377Z,37.30
2022-08-30T13:57:05.358Z,37.56
2022-08-30T13:58:05.339Z,37.68
2022-08-30T13:59:05.323Z,37.60
2022-08-30T14:00:05.308Z,37.63
2022-08-30T14:01:05.320Z,37.77
2022-08-30T14:02:08.745Z,37.94
2022-08-30T14:03:05.257Z,37.97
2022-08-30T14:04:20.604Z,38.01
2022-08-30T14:05:05.243Z,38.14
2022-08-30T14:06:31.602Z,37.99
2022-08-30T14:07:14.093Z,38.05
2022-08-30T14:08:05.918Z,38.15
2022-08-30T14:09:05.401Z,37.90
2022-08-30T14:11:05.112Z,37.74
2022-08-30T14:12:05.081Z,37.97
2022-08-30T14:13:09.065Z,38.19
2022-08-30T14:14:39.110Z,38.26
2022-08-30T14:15:05.028Z,38.39
2022-08-30T14:17:05.051Z,38.45
2022-08-30T14:18:04.967Z,38.54
2022-08-30T14:19:05.696Z,38.57
2022-08-30T14:20:04.934Z,38.68
2022-08-30T14:21:04.916Z,38.58
2022-08-30T14:22:04.899Z,38.50
2022-08-30T14:23:04.889Z,38.26
2022-08-30T14:24:04.877Z,38.17
2022-08-30T14:25:04.875Z,38.20
2022-08-30T14:26:04.829Z,38.31
2022-08-30T14:27:04.810Z,38.36
2022-08-30T14:28:05.022Z,38.15
2022-08-30T14:29:04.775Z,38.11
2022-08-30T14:30:04.753Z,37.83
2022-08-30T14:31:04.795Z,37.68
2022-08-30T14:32:04.717Z,37.53
2022-08-30T14:33:04.700Z,37.68
2022-08-30T14:34:05.330Z,37.87
2022-08-30T14:35:04.667Z,37.97
2022-08-30T14:36:04.647Z,37.93
2022-08-30T14:37:04.639Z,37.68
2022-08-30T14:38:04.609Z,37.25
2022-08-30T14:39:08.452Z,37.74
2022-08-30T14:40:04.624Z,37.89
2022-08-30T14:41:04.565Z,38.11
2022-08-30T14:42:07.585Z,38.20
2022-08-30T14:43:04.517Z,38.34
2022-08-30T14:44:04.520Z,38.40
2022-08-30T14:45:04.479Z,38.05
2022-08-30T14:46:04.515Z,38.20
2022-08-30T14:47:04.446Z,38.06
2022-08-30T14:48:04.427Z,37.90
2022-08-30T14:49:04.408Z,37.47
2022-08-30T14:50:04.388Z,36.88
2022-08-30T14:51:04.370Z,36.77
2022-08-30T14:52:04.356Z,36.54
2022-08-30T14:53:04.333Z,36.84
2022-08-30T14:54:04.319Z,37.33
2022-08-30T14:55:08.636Z,37.18
2022-08-30T14:56:04.277Z,37.42
2022-08-30T14:57:04.272Z,37.77
2022-08-30T14:58:04.241Z,37.71
2022-08-30T14:59:04.222Z,37.56
2022-08-30T15:00:04.222Z,37.40
2022-08-30T15:01:04.238Z,37.02
2022-08-30T15:02:04.174Z,36.79
2022-08-30T15:03:04.148Z,36.64
2022-08-30T15:04:04.169Z,36.93
2022-08-30T15:05:04.107Z,37.29
2022-08-30T15:06:04.098Z,37.56
2022-08-30T15:07:04.071Z,37.74
2022-08-30T15:08:04.050Z,37.92
2022-08-30T15:09:04.034Z,38.01
2022-08-30T15:10:04.014Z,37.86
2022-08-30T15:11:03.997Z,37.83
2022-08-30T15:12:03.974Z,37.93
2022-08-30T15:13:05.028Z,37.64
2022-08-30T15:14:03.937Z,36.91
2022-08-30T15:15:03.922Z,36.79
2022-08-30T15:16:03.948Z,36.74
2022-08-30T15:17:03.888Z,36.47
2022-08-30T15:18:03.864Z,36.42
2022-08-30T15:19:03.864Z,36.54
2022-08-30T15:20:07.404Z,36.46
2022-08-30T15:21:03.813Z,36.72
2022-08-30T15:22:03.785Z,36.68
2022-08-30T15:23:03.766Z,36.00
2022-08-30T15:24:03.744Z,35.74
2022-08-30T15:25:03.726Z,35.95
2022-08-30T15:26:03.708Z,36.31
2022-08-30T15:27:03.686Z,36.64
2022-08-30T15:28:03.668Z,36.89
2022-08-30T15:29:03.654Z,36.88
2022-08-30T15:30:03.628Z,36.91
2022-08-30T15:31:08.577Z,36.88
2022-08-30T15:32:03.696Z,36.89
2022-08-30T15:33:03.568Z,36.67
2022-08-30T15:34:03.549Z,36.52
2022-08-30T15:35:03.538Z,35.85
2022-08-30T15:36:04.396Z,35.53
2022-08-30T15:37:03.626Z,35.07
2022-08-30T15:38:03.469Z,34.90
2022-08-30T15:39:03.451Z,34.83
2022-08-30T15:40:04.564Z,34.77
2022-08-30T15:41:03.412Z,34.95
2022-08-30T15:42:03.722Z,34.97
2022-08-30T15:43:03.372Z,34.99
2022-08-30T15:44:03.352Z,34.89
2022-08-30T15:45:03.332Z,34.75
2022-08-30T15:46:03.310Z,34.85
2022-08-30T15:47:03.331Z,34.61
2022-08-30T15:48:03.265Z,34.51
2022-08-30T15:49:03.248Z,34.51
2022-08-30T15:50:03.238Z,34.06
2022-08-30T15:51:03.214Z,33.74
2022-08-30T15:52:03.193Z,33.62
2022-08-30T15:53:03.161Z,33.49
2022-08-30T15:54:03.141Z,33.20
2022-08-30T15:55:03.121Z,33.27
2022-08-30T15:56:03.122Z,33.24
2022-08-30T15:57:03.073Z,33.23
2022-08-30T15:58:03.055Z,33.39
2022-08-30T15:59:03.044Z,33.45
2022-08-30T16:00:03.021Z,33.28
2022-08-30T16:01:03.045Z,33.39
2022-08-30T16:02:03.005Z,33.07
2022-08-30T16:03:02.948Z,33.07
2022-08-30T16:05:41.466Z,32.77
2022-08-30T16:08:19.966Z,32.77
2022-08-30T16:09:19.931Z,32.53
2022-08-30T16:11:23.846Z,32.52
2022-08-30T16:12:23.996Z,32.71
2022-08-30T16:14:27.752Z,32.87
2022-08-30T16:15:30.260Z,33.01
2022-08-30T16:17:31.636Z,32.45
2022-08-30T16:18:31.627Z,32.58
2022-08-30T16:20:35.544Z,32.74
2022-08-30T16:21:35.502Z,32.83
2022-08-30T16:23:39.439Z,32.40
2022-08-30T16:24:39.399Z,32.48
2022-08-30T16:26:43.399Z,32.33
2022-08-30T16:27:43.344Z,32.18
2022-08-30T16:29:47.229Z,31.96
2022-08-30T16:30:47.198Z,32.07
2022-08-30T16:32:51.117Z,31.96
2022-08-30T16:33:52.694Z,31.81
2022-08-30T16:35:55.012Z,31.77
2022-08-30T16:36:54.973Z,31.74
2022-08-30T16:38:58.907Z,31.12
2022-08-30T16:39:59.039Z,30.91
2022-08-30T16:41:51.727Z,30.75